Terminal Aerodrome Forecast
Issued by NWS Twin Cities, MN

Home | Current Version | Previous Version | Text Only | Print | Product List | Glossary On
Versions: 1 2 3 4 5 6 7 8 9 10 11 12 13 14 15 16
000
FTUS43 KMPX 150800 AAA
TAFSTC
TAF AMD
KSTC 150846Z 1509/1606 28003KT 1SM BR OVC003
     FM151900 35012G18KT 3/4SM RA BR OVC005
     FM152300 35016G27KT 3/4SM RAPLSN OVC005
     FM160100 34019G30KT 3/4SM -SN BR OVC008=

USA.gov is the U.S. government's official web portal to all federal, state and local government web resources and services.